Pagina principale
METAR-TAF:

METAR-TAF

Aeroporti :

Aeroporto Internazionale del Kuwait

Madinat al-Kuwait, Kuwait

latitudine: 29-13N, longitudine: 047-59E, altezza: 55 m

Osservazione

Il bollettino è stato emesso 59 minuti fa, alle 13:00 UTC
Vento 6 kt da est
Temperature 21°C
Umidità 78%
Pressione 1021 hPa
Visibilità 10 km o più
Poco nuvoloso ad un'altezza di 2500 ft, Cumulo congesto.

METAR: OKBK 181300Z 08006KT 9999 FEW025TCU 21/17 Q1021 NOSIG

Ora: 16:59 (13:59 UTC)

Previsione

Il bollettino è stato emesso 3 ore e 14 minuti fa, alle 10:45 UTC
Previsione valida dal 18 alle 12 UTC al 19 alle 18 UTC
Vento 3 kt da direzioni variabili
Visibilità: 8000 m
Cielo sereno
Evoluzione graduale
dal 18 alle 14 UTC al 18 alle 16 UTC
Vento 10 kt da nord/nord-ovest

TAF: OKBK 181045Z 1812/1918 VRB03KT 8000 SKC BECMG 1814/1816 34010KT

Osservazioni e previsioni meteorologiche di più di 4000 aeroporti (messaggi METAR e TAF).

Le stazioni disponibili sono rappresentate dai dischi gialli e rossi sulla carta.

Puntare il mouse per vedere il nome della stazione.

Clicca sopra per visualizzare le osservazioni e previsioni meteorologiche.

Per cambiare la mappa : fare clic sui pulsanti verdi con una croce nera per ingrandire, il pulsante verde con un trattino per diminuire, o sulla freccia verde per le mappe adiacenti.


METAR-TAF: